Time;durP1;ratioP1;P1;durP2;ratioP2;P2;SDS_P1;SDS_P2;PMS_P1;PMS_P2;Temp;Humidity;BMP_temperature;BMP_pressure;BME280_temperature;BME280_humidity;BME280_pressure;Samples;Min_cycle;Max_cycle;Signal;HPM_P1;HPM_P2
2024/04/22 00:02:09;;;;;;;12.73;2.83;;;;;;;;;;5382320;26;20029;-82
2024/04/22 00:04:39;;;;;;;7.93;2.72;;;;;;;;;;5382495;26;20490;-83
2024/04/22 00:07:11;;;;;;;7.47;2.30;;;;;;;;;;5380474;26;20024;-83
2024/04/22 00:09:41;;;;;;;10.82;3.35;;;;;;;;;;5350660;26;20487;-81
2024/04/22 00:12:12;;;;;;;11.45;2.85;;;;;;;;;;5351556;26;20139;-82
2024/04/22 00:14:42;;;;;;;9.85;2.85;;;;;;;;;;5381896;26;20053;-82
2024/04/22 00:17:12;;;;;;;8.57;3.17;;;;;;;;;;5379831;26;20028;-82
2024/04/22 00:19:53;;;;;;;8.25;3.33;;;;;;;;;;5380914;26;20028;-83
2024/04/22 00:22:23;;;;;;;10.98;3.30;;;;;;;;;;5381827;26;20025;-82
2024/04/22 00:24:53;;;;;;;10.10;3.50;;;;;;;;;;5379959;26;20102;-82
2024/04/22 00:27:24;;;;;;;10.40;3.50;;;;;;;;;;5380146;26;20017;-82
2024/04/22 00:29:54;;;;;;;12.77;3.00;;;;;;;;;;5377605;26;20061;-82
2024/04/22 00:32:24;;;;;;;9.40;3.08;;;;;;;;;;5369554;26;20377;-83
2024/04/22 00:34:55;;;;;;;9.60;2.65;;;;;;;;;;5387416;26;20353;-82
2024/04/22 00:37:24;;;;;;;9.45;3.47;;;;;;;;;;5403491;26;20031;-83
2024/04/22 00:39:54;;;;;;;5.53;2.90;;;;;;;;;;5391988;26;20024;-84
2024/04/22 00:42:24;;;;;;;6.95;2.58;;;;;;;;;;5396239;26;20024;-81
2024/04/22 00:44:56;;;;;;;9.63;3.20;;;;;;;;;;5381378;26;20031;-81
2024/04/22 00:47:26;;;;;;;11.75;4.10;;;;;;;;;;5388541;26;20469;-83
2024/04/22 00:49:57;;;;;;;11.05;4.40;;;;;;;;;;5392883;26;20429;-83
2024/04/22 00:52:27;;;;;;;10.95;3.83;;;;;;;;;;5370278;26;20040;-82
2024/04/22 00:54:57;;;;;;;9.20;3.47;;;;;;;;;;5389972;26;20473;-82
2024/04/22 00:57:27;;;;;;;13.00;3.80;;;;;;;;;;5393299;26;20032;-82
2024/04/22 00:59:58;;;;;;;8.73;3.53;;;;;;;;;;5370641;26;20445;-82
2024/04/22 01:02:29;;;;;;;13.70;3.47;;;;;;;;;;5412556;26;20019;-81
2024/04/22 01:05:00;;;;;;;10.57;3.40;;;;;;;;;;5412523;26;20031;-82
2024/04/22 01:07:31;;;;;;;8.48;3.10;;;;;;;;;;5414400;26;20031;-82
2024/04/22 01:10:04;;;;;;;12.43;3.63;;;;;;;;;;5414261;26;20031;-81
2024/04/22 01:12:35;;;;;;;7.80;3.30;;;;;;;;;;5414246;26;21574;-82
2024/04/22 01:15:05;;;;;;;11.00;4.10;;;;;;;;;;5409878;26;20040;-82
2024/04/22 01:17:46;;;;;;;8.20;3.55;;;;;;;;;;5378678;26;20032;-82
2024/04/22 01:20:17;;;;;;;7.60;3.00;;;;;;;;;;5376435;26;20044;-82
2024/04/22 01:22:47;;;;;;;7.30;3.35;;;;;;;;;;5380127;26;20041;-83
2024/04/22 01:25:18;;;;;;;10.95;3.53;;;;;;;;;;5377917;26;20040;-83
2024/04/22 01:27:49;;;;;;;11.70;4.00;;;;;;;;;;5382118;26;20040;-82
2024/04/22 01:30:19;;;;;;;8.82;3.20;;;;;;;;;;5399854;26;20370;-83
2024/04/22 01:32:49;;;;;;;7.35;3.38;;;;;;;;;;5417059;26;20032;-83
2024/04/22 01:35:19;;;;;;;10.25;3.33;;;;;;;;;;5416748;26;20028;-82
2024/04/22 01:37:49;;;;;;;10.63;3.85;;;;;;;;;;5415566;26;20032;-84
2024/04/22 01:40:19;;;;;;;12.00;3.47;;;;;;;;;;5415332;26;20032;-82
2024/04/22 01:42:49;;;;;;;15.25;4.30;;;;;;;;;;5417412;26;20028;-83
2024/04/22 01:45:19;;;;;;;12.32;4.05;;;;;;;;;;5414858;26;20028;-82
2024/04/22 01:47:50;;;;;;;13.88;4.03;;;;;;;;;;5415489;26;20036;-82
2024/04/22 01:50:20;;;;;;;9.75;2.95;;;;;;;;;;5415163;26;20031;-82
2024/04/22 01:52:50;;;;;;;8.63;3.40;;;;;;;;;;5416891;26;20036;-83
2024/04/22 01:55:20;;;;;;;13.70;3.67;;;;;;;;;;5415235;26;20031;-82
2024/04/22 01:57:51;;;;;;;9.50;3.63;;;;;;;;;;5386954;26;20031;-81
2024/04/22 02:00:22;;;;;;;9.55;3.25;;;;;;;;;;5397016;26;20036;-82
2024/04/22 02:02:52;;;;;;;7.15;2.85;;;;;;;;;;5381570;26;20028;-82
2024/04/22 02:05:23;;;;;;;10.93;3.70;;;;;;;;;;5381103;26;20036;-83
2024/04/22 02:07:54;;;;;;;11.38;3.78;;;;;;;;;;5380783;26;20044;-82
2024/04/22 02:10:24;;;;;;;14.85;5.07;;;;;;;;;;5379029;26;20036;-83
2024/04/22 02:12:54;;;;;;;12.10;5.25;;;;;;;;;;5378637;26;20101;-83
2024/04/22 02:15:25;;;;;;;11.88;4.03;;;;;;;;;;5379146;26;20122;-83
2024/04/22 02:17:55;;;;;;;13.02;3.92;;;;;;;;;;5381056;26;20423;-83
2024/04/22 02:20:26;;;;;;;7.82;3.83;;;;;;;;;;5380795;26;20032;-82
2024/04/22 02:22:57;;;;;;;11.10;3.90;;;;;;;;;;5378631;26;20028;-82
2024/04/22 02:25:27;;;;;;;10.63;3.97;;;;;;;;;;5379482;26;20841;-82
2024/04/22 02:27:58;;;;;;;10.43;3.42;;;;;;;;;;5380892;26;20389;-82
2024/04/22 02:30:28;;;;;;;10.45;3.90;;;;;;;;;;5344074;26;20024;-82
2024/04/22 02:32:58;;;;;;;12.75;3.95;;;;;;;;;;5345141;26;20037;-82
2024/04/22 02:35:28;;;;;;;8.00;3.97;;;;;;;;;;5346235;26;20358;-82
2024/04/22 02:37:58;;;;;;;15.13;4.53;;;;;;;;;;5346273;26;20045;-83
2024/04/22 02:40:28;;;;;;;11.55;5.22;;;;;;;;;;5344979;26;20041;-82
2024/04/22 02:42:59;;;;;;;17.40;4.80;;;;;;;;;;5348989;26;20029;-83
2024/04/22 02:45:29;;;;;;;15.88;5.25;;;;;;;;;;5358129;26;20032;-83
2024/04/22 02:48:00;;;;;;;12.93;4.70;;;;;;;;;;5389626;26;20024;-81
2024/04/22 02:50:32;;;;;;;13.40;5.38;;;;;;;;;;5402961;26;20015;-80
2024/04/22 02:53:02;;;;;;;12.43;4.93;;;;;;;;;;5402961;26;20035;-80
2024/04/22 02:55:32;;;;;;;15.18;4.90;;;;;;;;;;5402373;26;19996;-80
2024/04/22 02:58:02;;;;;;;16.38;5.35;;;;;;;;;;5385405;26;20029;-84
2024/04/22 03:00:32;;;;;;;13.60;4.82;;;;;;;;;;5382920;26;20028;-83
2024/04/22 03:03:02;;;;;;;12.05;4.10;;;;;;;;;;5383215;26;20022;-83
2024/04/22 03:05:36;;;;;;;11.70;4.90;;;;;;;;;;5380924;26;20036;-82
2024/04/22 03:08:08;;;;;;;11.50;4.00;;;;;;;;;;5382982;26;20029;-83
2024/04/22 03:10:39;;;;;;;;;;;;;;;;;;5381842;26;20361;-83
2024/04/22 03:13:09;;;;;;;9.98;3.67;;;;;;;;;;5382684;26;19958;-83
2024/04/22 03:15:39;;;;;;;11.02;3.70;;;;;;;;;;5382671;26;20020;-83
2024/04/22 03:18:10;;;;;;;8.27;3.38;;;;;;;;;;5381784;26;20024;-82
2024/04/22 03:20:40;;;;;;;12.80;3.78;;;;;;;;;;5382584;26;20474;-82
2024/04/22 03:23:10;;;;;;;13.25;4.20;;;;;;;;;;5382713;26;20025;-83
2024/04/22 03:25:40;;;;;;;10.15;3.90;;;;;;;;;;5382643;26;20020;-83
2024/04/22 03:28:11;;;;;;;12.20;4.65;;;;;;;;;;5381261;26;20023;-82
2024/04/22 03:30:41;;;;;;;10.30;4.50;;;;;;;;;;5382642;26;20028;-83
2024/04/22 03:33:10;;;;;;;10.02;3.95;;;;;;;;;;5382491;26;20020;-83
2024/04/22 03:35:40;;;;;;;12.65;3.83;;;;;;;;;;5382599;26;20498;-83
2024/04/22 03:38:10;;;;;;;12.50;4.28;;;;;;;;;;5380913;26;20020;-83
2024/04/22 03:40:40;;;;;;;16.85;4.70;;;;;;;;;;5379865;26;20365;-83
2024/04/22 03:43:12;;;;;;;10.90;4.53;;;;;;;;;;5382514;26;20029;-83
2024/04/22 03:49:50;;;;;;;10.30;4.20;;;;;;;;;;5380972;26;20356;-82
2024/04/22 03:51:21;;;;;;;11.45;3.83;;;;;;;;;;5382280;26;20025;-83
2024/04/22 03:53:51;;;;;;;10.70;3.65;;;;;;;;;;5382126;26;20020;-83
2024/04/22 03:56:23;;;;;;;13.25;4.50;;;;;;;;;;5382261;26;20033;-82
2024/04/22 03:58:54;;;;;;;12.00;4.10;;;;;;;;;;5380381;26;20037;-83
2024/04/22 04:01:24;;;;;;;14.43;4.95;;;;;;;;;;5381836;26;20028;-83
2024/04/22 04:03:54;;;;;;;12.15;4.43;;;;;;;;;;5381899;26;20029;-84
2024/04/22 04:06:24;;;;;;;11.18;4.80;;;;;;;;;;5382046;26;20021;-83
2024/04/22 04:08:55;;;;;;;10.27;5.15;;;;;;;;;;5380470;26;20360;-83
2024/04/22 04:11:32;;;;;;;12.88;4.15;;;;;;;;;;5380195;26;20020;-82
2024/04/22 04:14:10;;;;;;;10.40;4.43;;;;;;;;;;5382045;26;20028;-83
2024/04/22 04:16:40;;;;;;;10.60;3.97;;;;;;;;;;5381863;26;20027;-83
2024/04/22 04:19:10;;;;;;;12.02;4.32;;;;;;;;;;5380281;26;20016;-83
2024/04/22 04:21:41;;;;;;;11.93;4.20;;;;;;;;;;5382322;26;20016;-83
2024/04/22 04:24:13;;;;;;;12.30;4.30;;;;;;;;;;5382354;26;20024;-83
2024/04/22 04:26:43;;;;;;;12.15;4.18;;;;;;;;;;5380425;26;20428;-82
2024/04/22 04:29:13;;;;;;;12.77;4.45;;;;;;;;;;5380121;26;20020;-82
2024/04/22 04:31:43;;;;;;;10.15;3.60;;;;;;;;;;5381355;26;20364;-82
2024/04/22 04:34:14;;;;;;;10.25;3.95;;;;;;;;;;5379723;26;20018;-83
2024/04/22 04:36:44;;;;;;;10.15;4.43;;;;;;;;;;5381525;26;20517;-82
2024/04/22 04:39:14;;;;;;;9.70;4.03;;;;;;;;;;5379409;26;20036;-82
2024/04/22 04:41:45;;;;;;;13.55;4.30;;;;;;;;;;5379983;26;20016;-82
2024/04/22 04:44:15;;;;;;;13.25;3.90;;;;;;;;;;5379434;26;20466;-82
2024/04/22 04:46:45;;;;;;;10.93;4.00;;;;;;;;;;5381217;26;20016;-82
2024/04/22 04:49:15;;;;;;;8.48;3.83;;;;;;;;;;5381378;26;20028;-83
2024/04/22 04:51:46;;;;;;;7.30;3.45;;;;;;;;;;5381097;26;20029;-82
2024/04/22 04:54:16;;;;;;;9.35;3.47;;;;;;;;;;5379151;26;20490;-82
2024/04/22 04:56:49;;;;;;;8.57;3.50;;;;;;;;;;5382499;26;20044;-82
2024/04/22 04:59:19;;;;;;;7.47;3.10;;;;;;;;;;5382174;26;20365;-83
2024/04/22 05:01:51;;;;;;;12.65;3.55;;;;;;;;;;5383464;26;20016;-82
2024/04/22 05:04:22;;;;;;;10.55;3.55;;;;;;;;;;5382486;26;20016;-82
2024/04/22 05:06:52;;;;;;;8.00;3.53;;;;;;;;;;5383454;26;20024;-82
2024/04/22 05:09:22;;;;;;;11.68;3.58;;;;;;;;;;5382897;26;20016;-82
2024/04/22 05:11:52;;;;;;;9.35;3.58;;;;;;;;;;5382879;26;20033;-82
2024/04/22 05:14:22;;;;;;;10.95;3.58;;;;;;;;;;5384846;26;20024;-82
2024/04/22 05:16:52;;;;;;;9.63;3.67;;;;;;;;;;5382627;26;20361;-83
2024/04/22 05:19:22;;;;;;;10.13;3.63;;;;;;;;;;5382719;26;20016;-83
2024/04/22 05:21:52;;;;;;;10.32;3.78;;;;;;;;;;5384129;26;20028;-82
2024/04/22 05:24:22;;;;;;;9.95;3.65;;;;;;;;;;5384497;26;20028;-82
2024/04/22 05:26:56;;;;;;;8.90;3.65;;;;;;;;;;5383148;26;20020;-82
2024/04/22 05:29:26;;;;;;;14.82;3.40;;;;;;;;;;5382672;26;20477;-82
2024/04/22 05:31:56;;;;;;;7.93;2.88;;;;;;;;;;5383064;26;20024;-82
2024/04/22 05:37:15;;;;;;;8.90;3.42;;;;;;;;;;5384463;26;20016;-82
2024/04/22 05:39:45;;;;;;;8.27;3.35;;;;;;;;;;5384125;26;20462;-82
2024/04/22 05:42:16;;;;;;;9.02;2.92;;;;;;;;;;5384092;26;20016;-83
2024/04/22 05:44:47;;;;;;;6.82;3.17;;;;;;;;;;5384477;26;20483;-82
2024/04/22 05:47:17;;;;;;;6.97;3.35;;;;;;;;;;5384230;26;20016;-83
2024/04/22 05:49:48;;;;;;;7.50;3.13;;;;;;;;;;5382259;26;20028;-82
2024/04/22 05:52:20;;;;;;;8.20;2.90;;;;;;;;;;5382402;26;20024;-83
2024/04/22 05:54:50;;;;;;;5.72;2.90;;;;;;;;;;5384180;26;20479;-82
2024/04/22 05:57:20;;;;;;;9.18;3.22;;;;;;;;;;5382534;26;20024;-82
2024/04/22 05:59:51;;;;;;;8.70;3.25;;;;;;;;;;5383688;26;20475;-82
2024/04/22 06:02:22;;;;;;;8.13;3.10;;;;;;;;;;5383917;26;20025;-83
2024/04/22 06:04:53;;;;;;;9.70;3.67;;;;;;;;;;5382014;26;20024;-82
2024/04/22 06:07:24;;;;;;;7.95;3.33;;;;;;;;;;5383611;26;20024;-81
2024/04/22 06:09:55;;;;;;;9.55;3.30;;;;;;;;;;5383156;26;20020;-81
2024/04/22 06:12:24;;;;;;;9.73;3.15;;;;;;;;;;5383491;26;20029;-82
2024/04/22 06:14:55;;;;;;;9.20;3.72;;;;;;;;;;5383851;26;20032;-83
2024/04/22 06:17:26;;;;;;;6.80;3.38;;;;;;;;;;5381551;26;20024;-81
2024/04/22 06:19:56;;;;;;;7.22;3.42;;;;;;;;;;5382181;26;20383;-81
2024/04/22 06:22:25;;;;;;;7.97;3.83;;;;;;;;;;5383315;26;20016;-81
2024/04/22 06:24:55;;;;;;;8.15;3.40;;;;;;;;;;5384022;26;20455;-81
2024/04/22 06:27:26;;;;;;;9.10;4.13;;;;;;;;;;5383357;26;20028;-81
2024/04/22 06:29:55;;;;;;;7.35;3.63;;;;;;;;;;5383415;26;20486;-81
2024/04/22 06:32:26;;;;;;;9.05;3.28;;;;;;;;;;5382855;26;20032;-81
2024/04/22 06:34:56;;;;;;;10.82;4.00;;;;;;;;;;5382227;26;20021;-81
2024/04/22 06:37:25;;;;;;;9.57;3.45;;;;;;;;;;5383040;26;20049;-81
2024/04/22 06:39:56;;;;;;;7.85;3.33;;;;;;;;;;5381513;26;20020;-82
2024/04/22 06:42:26;;;;;;;7.72;3.22;;;;;;;;;;5382951;26;20017;-81
2024/04/22 06:44:56;;;;;;;11.15;3.35;;;;;;;;;;5383999;26;20343;-81
2024/04/22 06:47:26;;;;;;;10.80;3.33;;;;;;;;;;5383067;26;20016;-82
2024/04/22 06:49:56;;;;;;;8.45;3.83;;;;;;;;;;5383202;26;20016;-82
2024/04/22 06:52:27;;;;;;;11.63;3.70;;;;;;;;;;5380788;26;20020;-81
2024/04/22 06:54:56;;;;;;;9.80;3.50;;;;;;;;;;5381233;26;20024;-81
2024/04/22 06:57:26;;;;;;;7.07;3.60;;;;;;;;;;5381421;26;20028;-81
2024/04/22 06:59:58;;;;;;;8.50;3.28;;;;;;;;;;5382879;26;20020;-82
2024/04/22 07:02:28;;;;;;;7.78;3.33;;;;;;;;;;5382895;26;20024;-82
2024/04/22 07:04:58;;;;;;;10.48;3.60;;;;;;;;;;5383141;26;20024;-81
2024/04/22 07:07:28;;;;;;;9.07;3.97;;;;;;;;;;5382808;26;20025;-82
2024/04/22 07:09:58;;;;;;;9.10;3.45;;;;;;;;;;5382549;26;20028;-83
2024/04/22 07:12:28;;;;;;;9.23;3.47;;;;;;;;;;5382993;26;20024;-82
2024/04/22 07:14:58;;;;;;;8.38;3.53;;;;;;;;;;5380892;26;20029;-83
2024/04/22 07:17:28;;;;;;;14.80;3.85;;;;;;;;;;5383328;26;20474;-82
2024/04/22 07:20:00;;;;;;;9.18;3.67;;;;;;;;;;5381030;26;20021;-83
2024/04/22 07:22:37;;;;;;;8.38;3.88;;;;;;;;;;5381005;26;20020;-83
2024/04/22 07:25:08;;;;;;;10.00;4.57;;;;;;;;;;5381259;26;20024;-83
2024/04/22 07:27:39;;;;;;;8.93;3.38;;;;;;;;;;5380766;26;20469;-83
2024/04/22 07:30:10;;;;;;;8.27;3.50;;;;;;;;;;5382810;26;20008;-83
2024/04/22 07:32:40;;;;;;;8.57;4.00;;;;;;;;;;5382245;26;20020;-82
2024/04/22 07:35:11;;;;;;;6.22;3.33;;;;;;;;;;5382762;26;20020;-82
2024/04/22 07:37:43;;;;;;;6.85;3.05;;;;;;;;;;5380852;26;20025;-83
2024/04/22 07:40:18;;;;;;;8.00;3.58;;;;;;;;;;5352852;26;20027;-83
2024/04/22 07:42:48;;;;;;;13.98;4.15;;;;;;;;;;5382175;26;20032;-84
2024/04/22 07:45:19;;;;;;;8.20;3.47;;;;;;;;;;5382775;26;20458;-83
2024/04/22 07:47:55;;;;;;;8.50;3.70;;;;;;;;;;5383199;26;20040;-83
2024/04/22 07:50:25;;;;;;;9.10;3.97;;;;;;;;;;5382975;26;20024;-83
2024/04/22 07:52:55;;;;;;;9.10;3.88;;;;;;;;;;5384085;26;20024;-80
2024/04/22 07:55:26;;;;;;;12.60;4.35;;;;;;;;;;5399869;26;19996;-81
2024/04/22 07:57:57;;;;;;;11.27;4.28;;;;;;;;;;5399540;26;20004;-80
2024/04/22 08:00:28;;;;;;;11.13;4.30;;;;;;;;;;5395004;26;20064;-82
2024/04/22 08:03:00;;;;;;;7.93;3.72;;;;;;;;;;5381687;26;20024;-83
2024/04/22 08:05:31;;;;;;;9.10;4.30;;;;;;;;;;5382558;26;20353;-84
2024/04/22 08:08:05;;;;;;;8.98;4.22;;;;;;;;;;5380896;26;20422;-83
2024/04/22 08:10:36;;;;;;;8.52;4.00;;;;;;;;;;5379716;26;20209;-82
2024/04/22 08:13:06;;;;;;;9.90;3.60;;;;;;;;;;5382045;26;20021;-82
2024/04/22 08:15:36;;;;;;;8.70;3.45;;;;;;;;;;5381824;26;20016;-82
2024/04/22 08:18:06;;;;;;;10.30;5.28;;;;;;;;;;5380101;26;20025;-82
2024/04/22 08:20:36;;;;;;;8.82;4.03;;;;;;;;;;5381836;26;20346;-84
2024/04/22 08:23:06;;;;;;;7.82;3.95;;;;;;;;;;5381467;26;20020;-83
2024/04/22 08:25:36;;;;;;;10.85;4.43;;;;;;;;;;5380465;26;20029;-82
2024/04/22 08:28:07;;;;;;;6.60;3.33;;;;;;;;;;5381574;26;20020;-82
2024/04/22 08:30:40;;;;;;;7.30;3.83;;;;;;;;;;5381459;26;20029;-83
2024/04/22 08:33:10;;;;;;;8.38;3.80;;;;;;;;;;5379738;26;20458;-83
2024/04/22 08:35:47;;;;;;;10.65;3.78;;;;;;;;;;5381475;26;20025;-82
2024/04/22 08:38:17;;;;;;;9.32;3.78;;;;;;;;;;5381911;26;20017;-82
2024/04/22 08:40:48;;;;;;;7.45;3.15;;;;;;;;;;5381563;26;20029;-82
2024/04/22 08:43:20;;;;;;;10.50;4.00;;;;;;;;;;5381335;26;20463;-83
2024/04/22 08:45:50;;;;;;;9.10;3.97;;;;;;;;;;5381357;26;20454;-82
2024/04/22 08:48:21;;;;;;;8.35;4.10;;;;;;;;;;5381231;26;20466;-83
2024/04/22 08:50:52;;;;;;;13.35;4.28;;;;;;;;;;5380691;26;20029;-83
2024/04/22 08:53:23;;;;;;;11.23;4.43;;;;;;;;;;5381274;26;20025;-83
2024/04/22 08:55:54;;;;;;;12.73;4.10;;;;;;;;;;5379582;26;20033;-83
2024/04/22 08:58:25;;;;;;;10.45;4.20;;;;;;;;;;5381183;26;20348;-83
2024/04/22 09:00:57;;;;;;;9.77;4.28;;;;;;;;;;5381580;26;20020;-83
2024/04/22 09:03:27;;;;;;;10.45;4.03;;;;;;;;;;5381054;26;20020;-83
2024/04/22 09:05:57;;;;;;;11.32;4.63;;;;;;;;;;5379598;26;20020;-83
2024/04/22 09:08:27;;;;;;;12.75;4.50;;;;;;;;;;5381013;26;20016;-84
2024/04/22 09:10:58;;;;;;;10.57;4.70;;;;;;;;;;5380890;26;20084;-83
2024/04/22 09:13:31;;;;;;;11.13;4.72;;;;;;;;;;5381065;26;20100;-82
2024/04/22 09:16:02;;;;;;;13.07;5.25;;;;;;;;;;5380937;26;20089;-82
2024/04/22 09:18:36;;;;;;;12.85;5.65;;;;;;;;;;5379308;26;20099;-83
2024/04/22 09:21:10;;;;;;;13.07;5.30;;;;;;;;;;5380794;26;20025;-83
2024/04/22 09:23:42;;;;;;;14.95;5.13;;;;;;;;;;5379623;26;20025;-83
2024/04/22 09:26:13;;;;;;;14.32;4.90;;;;;;;;;;5372850;26;20576;-82
2024/04/22 09:28:45;;;;;;;12.73;4.40;;;;;;;;;;5372045;26;20032;-82
2024/04/22 09:31:19;;;;;;;10.95;4.70;;;;;;;;;;5385284;26;20028;-82
2024/04/22 09:33:50;;;;;;;10.23;4.32;;;;;;;;;;5389149;26;20028;-82
2024/04/22 09:36:22;;;;;;;11.50;4.80;;;;;;;;;;5409324;26;20024;-83
2024/04/22 09:38:56;;;;;;;9.98;4.72;;;;;;;;;;5392544;26;20040;-82
2024/04/22 09:41:27;;;;;;;12.95;4.65;;;;;;;;;;5394869;26;20028;-83
2024/04/22 09:44:02;;;;;;;13.00;4.38;;;;;;;;;;5381623;26;20423;-83
2024/04/22 09:46:42;;;;;;;11.65;4.97;;;;;;;;;;5382477;26;20025;-83
2024/04/22 09:49:14;;;;;;;11.77;4.63;;;;;;;;;;5384464;26;20021;-83
2024/04/22 09:51:47;;;;;;;12.48;4.50;;;;;;;;;;5382633;26;20020;-82
2024/04/22 09:54:18;;;;;;;16.73;5.57;;;;;;;;;;5383871;26;20362;-81
2024/04/22 09:56:49;;;;;;;14.38;5.80;;;;;;;;;;5383637;26;20383;-83
2024/04/22 09:59:20;;;;;;;15.20;5.10;;;;;;;;;;5381293;26;20384;-83
2024/04/22 10:01:51;;;;;;;17.25;5.63;;;;;;;;;;5382579;26;20469;-83
2024/04/22 10:04:21;;;;;;;10.02;4.57;;;;;;;;;;5383711;26;20024;-83
2024/04/22 10:06:52;;;;;;;14.15;5.05;;;;;;;;;;5385004;26;20020;-83
2024/04/22 10:09:22;;;;;;;8.85;4.28;;;;;;;;;;5382107;26;20020;-83
2024/04/22 10:11:53;;;;;;;12.20;5.22;;;;;;;;;;5383998;26;20021;-83
2024/04/22 10:14:30;;;;;;;10.45;4.80;;;;;;;;;;5383700;26;20025;-83
2024/04/22 10:17:02;;;;;;;10.80;4.53;;;;;;;;;;5381932;26;20021;-83
2024/04/22 10:19:34;;;;;;;10.60;4.30;;;;;;;;;;5381898;26;20016;-83
2024/04/22 10:22:08;;;;;;;7.90;4.20;;;;;;;;;;5383722;26;20016;-82
2024/04/22 10:24:40;;;;;;;13.63;5.38;;;;;;;;;;5382326;26;20016;-82
2024/04/22 10:27:11;;;;;;;16.10;5.50;;;;;;;;;;5383395;26;20037;-82
2024/04/22 10:29:42;;;;;;;17.48;5.20;;;;;;;;;;5383442;26;20020;-82
2024/04/22 10:32:12;;;;;;;15.90;6.22;;;;;;;;;;5381623;26;20024;-83
2024/04/22 10:34:43;;;;;;;16.35;4.72;;;;;;;;;;5383137;26;20454;-82
2024/04/22 10:37:14;;;;;;;14.90;6.47;;;;;;;;;;5383452;26;20017;-82
2024/04/22 10:39:45;;;;;;;17.42;5.80;;;;;;;;;;5383258;26;20016;-82
2024/04/22 10:42:17;;;;;;;14.48;6.05;;;;;;;;;;5353685;26;20016;-83
2024/04/22 10:44:49;;;;;;;20.10;6.00;;;;;;;;;;5383641;26;20361;-81
2024/04/22 10:47:20;;;;;;;18.08;5.10;;;;;;;;;;5381592;26;20032;-81
2024/04/22 10:49:50;;;;;;;11.45;4.93;;;;;;;;;;5382469;26;20032;-81
2024/04/22 10:52:22;;;;;;;12.32;4.88;;;;;;;;;;5352783;26;20020;-81
2024/04/22 10:54:53;;;;;;;;;;;;;;;;;;5382856;26;20032;-81
2024/04/22 10:57:23;;;;;;;11.07;4.28;;;;;;;;;;5383665;26;19946;-81
2024/04/22 10:59:53;;;;;;;22.77;4.78;;;;;;;;;;5383636;26;20020;-82
2024/04/22 11:02:23;;;;;;;12.88;4.93;;;;;;;;;;5383835;26;20093;-81
2024/04/22 11:04:54;;;;;;;10.45;4.43;;;;;;;;;;5363042;26;20044;-83
2024/04/22 11:07:28;;;;;;;20.75;4.43;;;;;;;;;;5377926;26;20036;-81
2024/04/22 11:10:02;;;;;;;9.77;4.25;;;;;;;;;;5377893;26;20049;-80
2024/04/22 11:12:33;;;;;;;9.85;4.13;;;;;;;;;;5357195;26;20012;-80
2024/04/22 11:15:03;;;;;;;13.77;4.10;;;;;;;;;;5382740;26;20466;-82
2024/04/22 11:17:33;;;;;;;10.50;4.20;;;;;;;;;;5379741;26;20032;-81
2024/04/22 11:20:11;;;;;;;7.13;3.83;;;;;;;;;;5352767;26;20033;-79
2024/04/22 11:22:44;;;;;;;9.05;3.42;;;;;;;;;;5381123;26;20025;-81
2024/04/22 11:25:14;;;;;;;11.70;4.32;;;;;;;;;;5381230;26;20033;-80
2024/04/22 11:27:44;;;;;;;11.60;4.03;;;;;;;;;;5381816;26;20364;-81
2024/04/22 11:30:14;;;;;;;8.05;3.75;;;;;;;;;;5379885;26;20025;-81
2024/04/22 11:32:44;;;;;;;11.98;4.82;;;;;;;;;;5355934;26;20041;-81
2024/04/22 11:35:15;;;;;;;12.43;5.20;;;;;;;;;;5382118;26;20036;-81
2024/04/22 11:37:46;;;;;;;14.82;5.70;;;;;;;;;;5380352;26;20020;-82
2024/04/22 11:40:16;;;;;;;24.27;6.68;;;;;;;;;;5379135;26;20023;-82
2024/04/22 11:42:46;;;;;;;17.67;7.25;;;;;;;;;;5380048;26;20047;-81
2024/04/22 11:45:17;;;;;;;18.33;6.70;;;;;;;;;;5381508;26;20024;-82
2024/04/22 11:47:47;;;;;;;15.63;7.13;;;;;;;;;;5381302;26;20024;-81
2024/04/22 11:50:17;;;;;;;18.75;7.00;;;;;;;;;;5381676;26;20024;-82
2024/04/22 11:52:47;;;;;;;15.77;6.53;;;;;;;;;;5381506;26;20839;-82
2024/04/22 11:55:17;;;;;;;16.48;6.97;;;;;;;;;;5381096;26;20371;-82
2024/04/22 11:57:48;;;;;;;15.98;6.53;;;;;;;;;;5382200;26;20024;-82
2024/04/22 12:00:18;;;;;;;20.83;6.38;;;;;;;;;;5379101;26;20032;-82
2024/04/22 12:02:49;;;;;;;19.10;6.10;;;;;;;;;;5374984;26;20040;-82
2024/04/22 12:05:22;;;;;;;16.23;5.88;;;;;;;;;;5375549;26;20173;-82
2024/04/22 12:08:03;;;;;;;11.60;4.63;;;;;;;;;;5374378;26;20037;-83
2024/04/22 12:10:34;;;;;;;14.27;5.72;;;;;;;;;;5373143;26;20039;-82
2024/04/22 12:13:04;;;;;;;13.32;4.05;;;;;;;;;;5346602;26;20033;-82
2024/04/22 12:15:34;;;;;;;14.32;5.20;;;;;;;;;;5346365;26;20025;-82
2024/04/22 12:18:04;;;;;;;12.13;3.90;;;;;;;;;;5345008;26;20382;-82
2024/04/22 12:20:35;;;;;;;11.60;4.32;;;;;;;;;;5356608;26;20035;-82
2024/04/22 12:23:06;;;;;;;15.60;4.82;;;;;;;;;;5380742;26;20344;-82
2024/04/22 12:25:36;;;;;;;14.93;5.07;;;;;;;;;;5371274;26;20033;-82
2024/04/22 12:28:07;;;;;;;11.55;4.22;;;;;;;;;;5379229;26;20093;-82
2024/04/22 12:30:51;;;;;;;15.70;5.18;;;;;;;;;;5377453;26;20036;-82
2024/04/22 12:33:23;;;;;;;15.30;4.38;;;;;;;;;;5380376;26;20056;-83
2024/04/22 12:35:55;;;;;;;19.42;4.53;;;;;;;;;;5385467;26;20023;-82
2024/04/22 12:38:26;;;;;;;10.18;4.68;;;;;;;;;;5371945;26;20044;-82
2024/04/22 12:40:56;;;;;;;18.98;4.75;;;;;;;;;;5380288;26;20036;-82
2024/04/22 12:43:26;;;;;;;11.93;4.25;;;;;;;;;;5384073;26;20005;-81
2024/04/22 12:45:56;;;;;;;12.48;4.18;;;;;;;;;;5364258;26;19997;-80
2024/04/22 12:51:15;;;;;;;10.40;3.95;;;;;;;;;;5389699;26;20004;-85
2024/04/22 12:53:50;;;;;;;12.90;4.35;;;;;;;;;;5382735;26;20032;-84
2024/04/22 12:56:26;;;;;;;16.17;4.93;;;;;;;;;;5380205;26;20036;-86
2024/04/22 12:59:38;;;;;;;14.05;4.13;;;;;;;;;;5382473;26;20180;-85
2024/04/22 13:02:19;;;;;;;13.65;3.88;;;;;;;;;;5383341;26;20045;-82
2024/04/22 13:04:53;;;;;;;18.58;4.03;;;;;;;;;;5348613;26;20486;-84
2024/04/22 13:07:23;;;;;;;13.77;4.10;;;;;;;;;;5369158;26;20032;-84
2024/04/22 13:09:54;;;;;;;12.90;4.40;;;;;;;;;;5373358;26;20052;-80
2024/04/22 13:12:26;;;;;;;14.65;3.70;;;;;;;;;;5377468;26;20028;-80
2024/04/22 13:14:56;;;;;;;18.10;4.40;;;;;;;;;;5369771;26;20036;-80
2024/04/22 13:17:26;;;;;;;14.20;4.13;;;;;;;;;;5375438;26;20030;-80
2024/04/22 13:19:56;;;;;;;16.10;4.57;;;;;;;;;;5381618;26;20024;-80
2024/04/22 13:22:26;;;;;;;15.00;4.45;;;;;;;;;;5383976;26;20032;-80
2024/04/22 13:24:56;;;;;;;22.85;10.48;;;;;;;;;;5380614;26;20028;-80
2024/04/22 13:27:29;;;;;;;13.90;5.00;;;;;;;;;;5381653;26;20060;-82
2024/04/22 13:30:08;;;;;;;17.92;4.82;;;;;;;;;;5349359;26;20025;-82
2024/04/22 13:32:39;;;;;;;14.95;3.47;;;;;;;;;;5348865;26;20028;-82
2024/04/22 13:35:10;;;;;;;23.35;5.50;;;;;;;;;;5381710;26;20028;-83
2024/04/22 13:37:41;;;;;;;9.00;3.70;;;;;;;;;;5383277;26;20535;-82
2024/04/22 13:40:11;;;;;;;13.25;6.43;;;;;;;;;;5381677;26;20024;-82
2024/04/22 13:42:42;;;;;;;17.27;5.38;;;;;;;;;;5383243;26;20028;-83
2024/04/22 13:45:17;;;;;;;10.43;3.72;;;;;;;;;;5383039;26;22308;-83
2024/04/22 13:47:48;;;;;;;12.80;3.42;;;;;;;;;;5380705;26;20028;-82
2024/04/22 13:50:18;;;;;;;8.75;3.63;;;;;;;;;;5383373;26;20024;-83
2024/04/22 13:52:49;;;;;;;8.52;3.35;;;;;;;;;;5382152;26;20028;-82
2024/04/22 13:55:19;;;;;;;7.53;3.15;;;;;;;;;;5382619;26;20032;-84
2024/04/22 13:57:49;;;;;;;8.18;3.45;;;;;;;;;;5381624;26;20021;-82
2024/04/22 14:00:19;;;;;;;7.32;3.47;;;;;;;;;;5383084;26;20479;-82
2024/04/22 14:02:49;;;;;;;8.32;3.33;;;;;;;;;;5347055;26;20082;-82
2024/04/22 14:05:19;;;;;;;9.65;3.05;;;;;;;;;;5379527;26;20016;-81
2024/04/22 14:07:49;;;;;;;9.23;3.10;;;;;;;;;;5379793;26;20024;-82
2024/04/22 14:10:20;;;;;;;8.30;3.03;;;;;;;;;;5380534;26;20032;-81
2024/04/22 14:12:50;;;;;;;7.10;2.92;;;;;;;;;;5379859;26;20037;-79
2024/04/22 14:15:19;;;;;;;9.00;3.15;;;;;;;;;;5379215;26;20032;-81
2024/04/22 14:18:04;;;;;;;8.30;3.28;;;;;;;;;;5380371;26;20032;-83
2024/04/22 14:20:35;;;;;;;11.48;3.33;;;;;;;;;;5344013;26;20376;-82
2024/04/22 14:23:05;;;;;;;11.07;3.40;;;;;;;;;;5373496;26;20040;-83
2024/04/22 14:25:35;;;;;;;8.52;2.83;;;;;;;;;;5380894;26;20105;-84
2024/04/22 14:28:06;;;;;;;8.80;3.03;;;;;;;;;;5380360;26;20036;-84
2024/04/22 14:30:36;;;;;;;6.88;2.83;;;;;;;;;;5382362;26;20482;-83
2024/04/22 14:33:06;;;;;;;8.43;3.38;;;;;;;;;;5380528;26;20040;-84
2024/04/22 14:35:36;;;;;;;6.80;3.30;;;;;;;;;;5382566;26;20036;-84
2024/04/22 14:38:06;;;;;;;6.85;2.63;;;;;;;;;;5381828;26;20373;-84
2024/04/22 14:40:36;;;;;;;6.80;2.75;;;;;;;;;;5380076;26;20037;-84
2024/04/22 14:43:06;;;;;;;6.35;2.70;;;;;;;;;;5382547;26;20024;-84
2024/04/22 14:45:36;;;;;;;5.90;2.70;;;;;;;;;;5382456;26;20045;-84
2024/04/22 14:48:06;;;;;;;6.00;2.95;;;;;;;;;;5382494;26;20032;-83
2024/04/22 14:50:37;;;;;;;4.55;2.35;;;;;;;;;;5375784;26;20378;-84
2024/04/22 14:53:06;;;;;;;6.60;2.47;;;;;;;;;;5382665;26;20482;-84
2024/04/22 14:55:38;;;;;;;5.00;1.85;;;;;;;;;;5381574;26;20052;-82
2024/04/22 14:58:08;;;;;;;4.78;1.67;;;;;;;;;;5381866;26;20028;-84
2024/04/22 15:00:38;;;;;;;3.15;1.30;;;;;;;;;;5379354;26;20040;-82
2024/04/22 15:03:08;;;;;;;4.65;1.23;;;;;;;;;;5383352;26;20032;-85
2024/04/22 15:05:40;;;;;;;2.80;1.25;;;;;;;;;;5381510;26;20467;-85
2024/04/22 15:08:10;;;;;;;4.97;1.25;;;;;;;;;;5382283;26;20024;-86